Buffalo, MN

4:43 PM CST on December 07, 2019 (GMT -0600)
Buffalo

Weather History for KCFE - October, 2019

Change the Weather History Date:

Thursday, October 10, 2019

  Actual Average (WUND) Record (WUND)
Temperature  
Mean Temperature 48 °F -  
Max Temperature 59 °F - - (-1)
Min Temperature 39 °F - - (-1)
Degree Days  
Heating Degree Days 16    
Moisture  
Dew Point 50 °F    
Average Humidity 89    
Maximum Humidity 94    
Minimum Humidity 61    
Precipitation  
Precipitation 0.26 in - - ()
Sea Level Pressure  
Sea Level Pressure 29.84 in    
Wind  
Wind Speed - (North)    
Max Wind Speed -    
Max Gust Speed -    
Visibility 6 miles    
Events Rain , Thunderstorm    
Averages and records for this station are not official NWS values.
T = Trace of Precipitation, MM = Missing Value Source: NWS Daily Summary

Daily Weather History Graph

Daily Weather History Graph

Search for Another Location

Airport or City:

Astronomy

Oct. 10, 2019 Rise Set
Actual Time 7:24 AM CDT 6:39 PM CDT
Civil Twilight 6:55 AM CDT 7:08 PM CDT
Nautical Twilight 6:20 AM CDT 7:42 PM CDT
Astronomical Twilight 5:46 AM CDT 8:17 PM CDT
Moon 5:52 PM CDT (10/10) 3:56 AM CDT (10/10)
Length of Visible Light 12h 13m
Length of Day
11h 14m
Waxing Gibbous, 91% of the Moon is Illuminated
Oct 10
Waxing Gibbous
Oct 13
Full
Oct 21
Last Quarter
Oct 27
New
Nov 4
First Quarter

Hourly Weather History & Observations

Time (CDT) Temp. Dew Point Humidity Pressure Visibility Wind Dir Wind Speed Gust Speed Precip Events Conditions
12:15 AM 57.4 °F 44.1 °F 61% 29.96 in 10.0 mi North - - N/A   Mostly Cloudy
12:35 AM 57.9 °F 44.8 °F 62% 29.97 in 10.0 mi North - - N/A Rain Light Rain
12:36 AM 57.7 °F 44.8 °F 62% 29.97 in 10.0 mi North - - N/A Rain Light Rain
12:55 AM 57.0 °F 47.3 °F 70% 29.99 in 10.0 mi North - - N/A Rain Light Rain
1:15 AM 55.2 °F 48.6 °F 78% 29.99 in 10.0 mi North - - N/A Rain Rain
1:16 AM 55.0 °F 48.6 °F 79% 29.99 in 10.0 mi North - - N/A Rain Rain
1:35 AM 53.4 °F 48.6 °F 84% 29.99 in 7.0 mi North - - N/A Rain Light Rain
1:55 AM 52.3 °F 47.8 °F 85% 29.98 in 10.0 mi North - - N/A   Overcast
2:15 AM 52.7 °F 48.2 °F 85% 29.97 in 10.0 mi North - - N/A   Overcast
2:35 AM 53.2 °F 48.9 °F 85% 29.97 in 10.0 mi North - - N/A Rain Rain
2:55 AM 52.3 °F 49.1 °F 89% 29.97 in 7.0 mi North - - N/A   Drizzle
2:56 AM 52.3 °F 49.3 °F 89% 29.97 in 7.0 mi North - - N/A   Drizzle
3:15 AM 52.3 °F 49.6 °F 91% 29.96 in 7.0 mi North - - N/A   Drizzle
3:35 AM 52.3 °F 49.6 °F 91% 29.96 in 10.0 mi North - - N/A   Light Drizzle
3:55 AM 52.3 °F 49.6 °F 91% 29.94 in 10.0 mi North - - N/A Rain Rain
4:15 AM 53.2 °F 50.0 °F 89% 29.94 in 10.0 mi North - - 0.01 in   Light Drizzle
4:16 AM 53.2 °F 50.0 °F 89% 29.94 in 10.0 mi North - - 0.01 in   Overcast
4:35 AM 53.2 °F 50.5 °F 91% 29.93 in 5.0 mi North - - 0.01 in Rain Rain
4:55 AM 53.2 °F 50.5 °F 91% 29.92 in 5.0 mi North - - 0.01 in   Light Drizzle
5:15 AM 53.2 °F 50.2 °F 89% 29.92 in 5.0 mi North - - N/A   Light Drizzle
5:35 AM 53.1 °F 50.4 °F 91% 29.91 in 4.0 mi North - - N/A   Drizzle
5:36 AM 53.1 °F 50.4 °F 91% 29.91 in 4.0 mi North - - N/A   Drizzle
5:55 AM 52.7 °F 50.2 °F 91% 29.91 in 4.0 mi North - - N/A   Drizzle
6:15 AM 52.7 °F 50.2 °F 91% 29.90 in 5.0 mi North - - N/A   Light Drizzle
6:35 AM 52.9 °F 50.5 °F 92% 29.90 in 5.0 mi North - - 0.01 in   Drizzle
6:55 AM 52.9 °F 50.5 °F 92% 29.89 in 5.0 mi North - - 0.01 in   Drizzle
7:15 AM 52.9 °F 50.9 °F 93% 29.88 in 4.0 mi North - - N/A   Drizzle
7:16 AM 52.9 °F 50.9 °F 93% 29.88 in 5.0 mi North - - N/A   Drizzle
7:35 AM 53.1 °F 51.1 °F 93% 29.88 in 5.0 mi North - - N/A   Light Drizzle
7:55 AM 53.2 °F 51.1 °F 92% 29.88 in 10.0 mi North - - N/A   Overcast
7:56 AM 53.2 °F 51.1 °F 92% 29.88 in 10.0 mi North - - N/A   Overcast
8:15 AM 53.2 °F 50.9 °F 92% 29.89 in 10.0 mi North - - N/A   Overcast
8:36 AM 53.6 °F 50.9 °F 91% 29.89 in 5.0 mi North - - N/A Rain Light Rain
8:55 AM 53.6 °F 50.9 °F 91% 29.89 in 5.0 mi North - - 0.01 in   Overcast
8:56 AM 53.6 °F 50.9 °F 91% 29.89 in 5.0 mi North - - 0.01 in   Overcast
9:16 AM 53.6 °F 50.9 °F 91% 29.89 in 4.0 mi North - - N/A Rain Light Rain
9:35 AM 53.6 °F 51.1 °F 91% 29.89 in 3.0 mi North - - N/A Rain Heavy Rain
9:55 AM 53.8 °F 51.6 °F 92% 29.89 in 3.0 mi North - - N/A   Drizzle
9:56 AM 53.6 °F 51.6 °F 93% 29.89 in 3.0 mi North - - 0.01 in   Drizzle
10:15 AM 54.0 °F 51.8 °F 92% 29.89 in 3.0 mi North - - 0.01 in   Drizzle
10:35 AM 54.1 °F 52.0 °F 92% 29.88 in 4.0 mi North - - 0.01 in Rain Rain
11:15 AM 54.9 °F 51.8 °F 89% 29.87 in 10.0 mi North - - N/A Rain Rain
11:35 AM 54.9 °F 51.8 °F 89% 29.87 in 7.0 mi North - - 0.03 in Rain Rain
11:55 AM 54.7 °F 52.0 °F 91% 29.85 in 7.0 mi North - - 0.05 in Rain Rain
11:56 AM 54.7 °F 52.0 °F 91% 29.85 in 7.0 mi North - - 0.05 in Rain Light Rain
12:15 PM 54.9 °F 52.2 °F 91% 29.84 in 7.0 mi North - - 0.01 in Rain Light Rain
12:35 PM 54.9 °F 52.2 °F 91% 29.84 in 10.0 mi North - - 0.02 in   Overcast
12:55 PM 55.4 °F 52.2 °F 89% 29.83 in 10.0 mi North - - 0.02 in   Overcast
1:15 PM 55.4 °F 52.2 °F 89% 29.82 in 7.0 mi North - - N/A Rain Rain
1:35 PM 55.6 °F 52.7 °F 90% 29.81 in 10.0 mi North - - N/A   Overcast
2:15 PM 58.1 °F 54.0 °F 86% 29.78 in 10.0 mi North - - N/A   Overcast
2:35 PM 58.5 °F 53.8 °F 84% 29.77 in 10.0 mi North - - N/A   Overcast
2:55 PM 58.6 °F 53.8 °F 84% 29.77 in 10.0 mi North - - N/A   Overcast
2:56 PM 58.6 °F 53.8 °F 84% 29.76 in 10.0 mi North - - N/A   Overcast
3:15 PM 58.3 °F 53.8 °F 85% 29.76 in 10.0 mi North - - N/A   Overcast
3:35 PM 58.3 °F 54.0 °F 86% 29.75 in 10.0 mi North - - N/A   Overcast
3:36 PM 58.3 °F 54.0 °F 86% 29.75 in 10.0 mi North - - N/A   Overcast
3:55 PM 57.4 °F 54.0 °F 88% 29.75 in 7.0 mi North - - 0.02 in Rain Rain
4:15 PM 56.8 °F 54.1 °F 91% 29.74 in 3.0 mi North - - 0.02 in Rain Light Rain
4:35 PM 57.2 °F 54.5 °F 91% 29.74 in 2.5 mi North - - 0.03 in Rain Rain
4:55 PM 57.4 °F 54.9 °F 91% 29.74 in 7.0 mi North - - 0.03 in   Overcast
5:15 PM 57.7 °F 55.0 °F 91% 29.73 in 10.0 mi North - - N/A   Overcast
5:35 PM 58.1 °F 55.4 °F 91% 29.72 in 7.0 mi North - - N/A   Overcast
5:36 PM 58.1 °F 55.4 °F 91% 29.72 in 7.0 mi North - - N/A   Overcast
5:55 PM 58.1 °F 55.4 °F 91% 29.72 in 3.0 mi North - - 0.01 in Rain Rain
6:15 PM 57.6 °F 55.4 °F 92% 29.71 in 5.0 mi North - - N/A Rain Light Rain
6:35 PM 57.6 °F 55.4 °F 92% 29.71 in 4.0 mi North - - N/A Rain Rain
6:55 PM 57.7 °F 55.6 °F 92% 29.71 in 3.0 mi North - - 0.01 in   Drizzle
7:15 PM 58.1 °F 55.8 °F 92% 29.70 in 4.0 mi North - - N/A   Drizzle
7:35 PM 58.1 °F 55.9 °F 93% 29.70 in 3.0 mi North - - N/A Rain Light Rain
7:55 PM 58.3 °F 56.3 °F 93% 29.70 in 4.0 mi North - - 0.01 in   Heavy Drizzle
8:15 PM 49.6 °F 47.1 °F 91% 29.71 in 4.0 mi North - - 0.01 in   Drizzle
8:35 PM 45.9 °F 43.5 °F 92% 29.72 in 3.0 mi North - - 0.02 in   Heavy Drizzle
8:36 PM 45.7 °F 43.5 °F 92% 29.72 in 3.0 mi North - - 0.02 in   Heavy Drizzle
8:55 PM 45.5 °F 43.7 °F 93% 29.72 in 3.0 mi North - - 0.02 in   Heavy Drizzle
9:15 PM 45.1 °F 43.3 °F 93% 29.72 in 3.0 mi North - - N/A Thunderstorm Drizzle
9:35 PM 44.6 °F 43.0 °F 94% 29.72 in 3.0 mi North - - 0.01 in   Heavy Drizzle
9:55 PM 44.6 °F 42.8 °F 93% 29.72 in 3.0 mi North - - 0.02 in   Drizzle
10:35 PM 43.2 °F 41.4 °F 93% 29.73 in 3.0 mi North - - 0.01 in   Drizzle
10:55 PM 42.3 °F 40.5 °F 93% 29.73 in 2.5 mi North - - 0.02 in   Drizzle
11:15 PM 41.4 °F 39.6 °F 93% 29.72 in 2.5 mi North - - N/A   Drizzle
11:35 PM 40.6 °F 38.7 °F 93% 29.73 in 4.0 mi North - - N/A   Light Drizzle
11:55 PM 39.9 °F 37.9 °F 93% 29.72 in 3.0 mi North - - N/A Thunderstorm Unknown
11:56 PM 39.9 °F 37.9 °F 93% 29.71 in 3.0 mi North - - N/A Thunderstorm Unknown